sensor_id;sensor_type;location;lat;lon;timestamp;temperature;humidity
13440;DHT22;6792;57.698;11.946;2023-11-19T00:00:34;8.70;48.20
13440;DHT22;6792;57.698;11.946;2023-11-19T00:03:03;8.70;48.80
13440;DHT22;6792;57.698;11.946;2023-11-19T00:05:34;8.70;48.80
13440;DHT22;6792;57.698;11.946;2023-11-19T00:08:05;8.70;48.80
13440;DHT22;6792;57.698;11.946;2023-11-19T00:10:35;8.70;48.30
13440;DHT22;6792;57.698;11.946;2023-11-19T00:13:07;8.70;48.80
13440;DHT22;6792;57.698;11.946;2023-11-19T00:15:38;8.70;48.80
13440;DHT22;6792;57.698;11.946;2023-11-19T00:18:07;8.70;48.80
13440;DHT22;6792;57.698;11.946;2023-11-19T00:20:37;8.70;48.70
13440;DHT22;6792;57.698;11.946;2023-11-19T00:23:07;8.80;48.90
13440;DHT22;6792;57.698;11.946;2023-11-19T00:25:36;8.70;48.80
13440;DHT22;6792;57.698;11.946;2023-11-19T00:28:06;8.80;48.80
13440;DHT22;6792;57.698;11.946;2023-11-19T00:30:36;8.80;48.80
13440;DHT22;6792;57.698;11.946;2023-11-19T00:33:05;8.80;48.90
13440;DHT22;6792;57.698;11.946;2023-11-19T00:35:35;8.80;48.80
13440;DHT22;6792;57.698;11.946;2023-11-19T00:38:05;8.80;48.90
13440;DHT22;6792;57.698;11.946;2023-11-19T00:40:35;8.80;48.90
13440;DHT22;6792;57.698;11.946;2023-11-19T00:43:04;8.90;48.80
13440;DHT22;6792;57.698;11.946;2023-11-19T00:45:34;8.90;48.80
13440;DHT22;6792;57.698;11.946;2023-11-19T00:48:04;8.90;48.80
13440;DHT22;6792;57.698;11.946;2023-11-19T00:50:34;8.90;48.80
13440;DHT22;6792;57.698;11.946;2023-11-19T00:53:04;8.90;48.90
13440;DHT22;6792;57.698;11.946;2023-11-19T00:55:33;8.90;48.80
13440;DHT22;6792;57.698;11.946;2023-11-19T00:58:03;9.00;48.90
13440;DHT22;6792;57.698;11.946;2023-11-19T01:00:33;9.00;48.90
13440;DHT22;6792;57.698;11.946;2023-11-19T01:03:04;9.00;48.80
13440;DHT22;6792;57.698;11.946;2023-11-19T01:05:35;9.00;48.80
13440;DHT22;6792;57.698;11.946;2023-11-19T01:08:04;8.90;48.80
13440;DHT22;6792;57.698;11.946;2023-11-19T01:10:34;8.90;49.30
13440;DHT22;6792;57.698;11.946;2023-11-19T01:13:06;8.90;48.90
13440;DHT22;6792;57.698;11.946;2023-11-19T01:15:36;8.80;48.80
13440;DHT22;6792;57.698;11.946;2023-11-19T01:18:06;8.80;48.80
13440;DHT22;6792;57.698;11.946;2023-11-19T01:20:39;8.80;48.90
13440;DHT22;6792;57.698;11.946;2023-11-19T01:23:08;8.70;48.90
13440;DHT22;6792;57.698;11.946;2023-11-19T01:25:40;8.70;48.90
13440;DHT22;6792;57.698;11.946;2023-11-19T01:28:10;8.70;49.00
13440;DHT22;6792;57.698;11.946;2023-11-19T01:30:40;8.70;49.00
13440;DHT22;6792;57.698;11.946;2023-11-19T01:33:10;8.70;49.10
13440;DHT22;6792;57.698;11.946;2023-11-19T01:35:40;8.70;49.00
13440;DHT22;6792;57.698;11.946;2023-11-19T01:38:09;8.70;49.10
13440;DHT22;6792;57.698;11.946;2023-11-19T01:40:39;8.70;49.10
13440;DHT22;6792;57.698;11.946;2023-11-19T01:43:09;8.70;49.10
13440;DHT22;6792;57.698;11.946;2023-11-19T01:45:44;8.60;49.10
13440;DHT22;6792;57.698;11.946;2023-11-19T01:48:15;8.60;49.10
13440;DHT22;6792;57.698;11.946;2023-11-19T01:50:45;8.60;49.20
13440;DHT22;6792;57.698;11.946;2023-11-19T01:53:15;8.60;49.20
13440;DHT22;6792;57.698;11.946;2023-11-19T01:55:50;8.60;49.30
13440;DHT22;6792;57.698;11.946;2023-11-19T01:58:21;8.60;49.30
13440;DHT22;6792;57.698;11.946;2023-11-19T02:00:52;8.60;49.30
13440;DHT22;6792;57.698;11.946;2023-11-19T02:03:23;8.70;49.30
13440;DHT22;6792;57.698;11.946;2023-11-19T02:08:51;8.60;48.70
13440;DHT22;6792;57.698;11.946;2023-11-19T02:11:30;8.60;48.90
13440;DHT22;6792;57.698;11.946;2023-11-19T02:14:00;8.60;49.70
13440;DHT22;6792;57.698;11.946;2023-11-19T02:16:31;8.60;49.40
13440;DHT22;6792;57.698;11.946;2023-11-19T02:21:44;8.60;48.80
13440;DHT22;6792;57.698;11.946;2023-11-19T02:24:16;8.60;49.30
13440;DHT22;6792;57.698;11.946;2023-11-19T02:26:50;8.60;49.30
13440;DHT22;6792;57.698;11.946;2023-11-19T02:29:19;8.60;48.80
13440;DHT22;6792;57.698;11.946;2023-11-19T02:31:49;8.70;49.50
13440;DHT22;6792;57.698;11.946;2023-11-19T02:34:18;8.70;49.50
13440;DHT22;6792;57.698;11.946;2023-11-19T02:36:50;8.70;49.30
13440;DHT22;6792;57.698;11.946;2023-11-19T02:39:21;8.70;49.30
13440;DHT22;6792;57.698;11.946;2023-11-19T02:41:51;8.70;49.40
13440;DHT22;6792;57.698;11.946;2023-11-19T02:44:21;8.80;49.40
13440;DHT22;6792;57.698;11.946;2023-11-19T02:46:51;8.80;49.40
13440;DHT22;6792;57.698;11.946;2023-11-19T02:49:21;8.80;49.30
13440;DHT22;6792;57.698;11.946;2023-11-19T02:51:52;8.80;49.40
13440;DHT22;6792;57.698;11.946;2023-11-19T02:54:22;8.70;49.30
13440;DHT22;6792;57.698;11.946;2023-11-19T02:56:53;8.70;49.30
13440;DHT22;6792;57.698;11.946;2023-11-19T02:59:25;8.70;49.40
13440;DHT22;6792;57.698;11.946;2023-11-19T03:01:56;8.70;49.30
13440;DHT22;6792;57.698;11.946;2023-11-19T03:04:27;8.70;49.30
13440;DHT22;6792;57.698;11.946;2023-11-19T03:06:57;8.70;49.30
13440;DHT22;6792;57.698;11.946;2023-11-19T03:09:27;8.70;49.30
13440;DHT22;6792;57.698;11.946;2023-11-19T03:11:57;8.80;49.40
13440;DHT22;6792;57.698;11.946;2023-11-19T03:14:27;8.70;49.30
13440;DHT22;6792;57.698;11.946;2023-11-19T03:16:56;8.80;49.30
13440;DHT22;6792;57.698;11.946;2023-11-19T03:19:26;8.80;49.40
13440;DHT22;6792;57.698;11.946;2023-11-19T03:21:55;8.70;49.30
13440;DHT22;6792;57.698;11.946;2023-11-19T03:24:25;8.70;49.30
13440;DHT22;6792;57.698;11.946;2023-11-19T03:26:54;8.70;49.40
13440;DHT22;6792;57.698;11.946;2023-11-19T03:29:23;8.80;49.40
13440;DHT22;6792;57.698;11.946;2023-11-19T03:31:54;8.70;49.50
13440;DHT22;6792;57.698;11.946;2023-11-19T03:34:27;8.70;49.30
13440;DHT22;6792;57.698;11.946;2023-11-19T03:36:56;8.70;49.30
13440;DHT22;6792;57.698;11.946;2023-11-19T03:39:26;8.70;49.30
13440;DHT22;6792;57.698;11.946;2023-11-19T03:41:55;8.70;49.30
13440;DHT22;6792;57.698;11.946;2023-11-19T03:44:27;8.70;49.40
13440;DHT22;6792;57.698;11.946;2023-11-19T03:46:56;8.60;49.40
13440;DHT22;6792;57.698;11.946;2023-11-19T03:49:26;8.60;49.50
13440;DHT22;6792;57.698;11.946;2023-11-19T03:51:56;8.60;49.00
13440;DHT22;6792;57.698;11.946;2023-11-19T03:54:25;8.60;49.50
13440;DHT22;6792;57.698;11.946;2023-11-19T03:56:55;8.60;49.60
13440;DHT22;6792;57.698;11.946;2023-11-19T03:59:25;8.60;49.50
13440;DHT22;6792;57.698;11.946;2023-11-19T04:01:54;8.60;49.60
13440;DHT22;6792;57.698;11.946;2023-11-19T04:04:24;8.60;49.60
13440;DHT22;6792;57.698;11.946;2023-11-19T04:06:54;8.60;49.70
13440;DHT22;6792;57.698;11.946;2023-11-19T04:09:25;8.60;49.60
13440;DHT22;6792;57.698;11.946;2023-11-19T04:11:55;8.60;49.60
13440;DHT22;6792;57.698;11.946;2023-11-19T04:14:24;8.60;49.70
13440;DHT22;6792;57.698;11.946;2023-11-19T04:17:12;8.70;49.80
13440;DHT22;6792;57.698;11.946;2023-11-19T04:19:41;9.00;49.30
13440;DHT22;6792;57.698;11.946;2023-11-19T04:22:11;8.70;49.70
13440;DHT22;6792;57.698;11.946;2023-11-19T04:24:40;8.70;49.70
13440;DHT22;6792;57.698;11.946;2023-11-19T04:27:11;8.70;49.70
13440;DHT22;6792;57.698;11.946;2023-11-19T04:29:40;8.70;49.70
13440;DHT22;6792;57.698;11.946;2023-11-19T04:32:10;8.70;49.70
13440;DHT22;6792;57.698;11.946;2023-11-19T04:34:39;8.70;49.80
13440;DHT22;6792;57.698;11.946;2023-11-19T04:37:08;8.70;49.20
13440;DHT22;6792;57.698;11.946;2023-11-19T04:39:38;8.80;49.70
13440;DHT22;6792;57.698;11.946;2023-11-19T04:42:08;8.80;49.70
13440;DHT22;6792;57.698;11.946;2023-11-19T04:44:37;8.80;49.60
13440;DHT22;6792;57.698;11.946;2023-11-19T04:47:06;8.80;49.60
13440;DHT22;6792;57.698;11.946;2023-11-19T04:49:39;8.80;49.60
13440;DHT22;6792;57.698;11.946;2023-11-19T04:52:06;8.80;49.60
13440;DHT22;6792;57.698;11.946;2023-11-19T04:54:36;8.80;49.60
13440;DHT22;6792;57.698;11.946;2023-11-19T04:57:06;8.80;49.70
13440;DHT22;6792;57.698;11.946;2023-11-19T04:59:37;8.80;49.70
13440;DHT22;6792;57.698;11.946;2023-11-19T05:02:07;8.70;49.70
13440;DHT22;6792;57.698;11.946;2023-11-19T05:04:37;8.70;49.80
13440;DHT22;6792;57.698;11.946;2023-11-19T05:07:06;8.70;49.80
13440;DHT22;6792;57.698;11.946;2023-11-19T05:09:36;8.80;49.90
13440;DHT22;6792;57.698;11.946;2023-11-19T05:12:06;8.80;49.90
13440;DHT22;6792;57.698;11.946;2023-11-19T05:14:56;8.80;49.90
13440;DHT22;6792;57.698;11.946;2023-11-19T05:17:25;8.80;49.40
13440;DHT22;6792;57.698;11.946;2023-11-19T05:19:54;8.80;49.90
13440;DHT22;6792;57.698;11.946;2023-11-19T05:22:24;8.80;49.90
13440;DHT22;6792;57.698;11.946;2023-11-19T05:24:53;8.80;49.90
13440;DHT22;6792;57.698;11.946;2023-11-19T05:27:23;8.80;49.90
13440;DHT22;6792;57.698;11.946;2023-11-19T05:29:54;8.80;49.90
13440;DHT22;6792;57.698;11.946;2023-11-19T05:32:24;8.90;50.00
13440;DHT22;6792;57.698;11.946;2023-11-19T05:34:53;8.90;50.00
13440;DHT22;6792;57.698;11.946;2023-11-19T05:37:23;8.90;50.00
13440;DHT22;6792;57.698;11.946;2023-11-19T05:39:53;8.90;50.00
13440;DHT22;6792;57.698;11.946;2023-11-19T05:42:22;8.90;50.00
13440;DHT22;6792;57.698;11.946;2023-11-19T05:44:52;8.90;50.00
13440;DHT22;6792;57.698;11.946;2023-11-19T05:47:21;8.90;50.00
13440;DHT22;6792;57.698;11.946;2023-11-19T05:49:50;9.00;50.10
13440;DHT22;6792;57.698;11.946;2023-11-19T05:52:20;9.00;50.00
13440;DHT22;6792;57.698;11.946;2023-11-19T05:54:50;9.00;50.00
13440;DHT22;6792;57.698;11.946;2023-11-19T05:57:20;9.00;50.00
13440;DHT22;6792;57.698;11.946;2023-11-19T05:59:51;8.90;49.50
13440;DHT22;6792;57.698;11.946;2023-11-19T06:02:21;8.90;50.10
13440;DHT22;6792;57.698;11.946;2023-11-19T06:04:50;8.90;50.20
13440;DHT22;6792;57.698;11.946;2023-11-19T06:07:20;8.90;50.20
13440;DHT22;6792;57.698;11.946;2023-11-19T06:09:49;8.90;50.20
13440;DHT22;6792;57.698;11.946;2023-11-19T06:12:18;8.90;50.30
13440;DHT22;6792;57.698;11.946;2023-11-19T06:14:47;8.90;50.30
13440;DHT22;6792;57.698;11.946;2023-11-19T06:17:18;8.90;50.30
13440;DHT22;6792;57.698;11.946;2023-11-19T06:19:47;8.90;50.30
13440;DHT22;6792;57.698;11.946;2023-11-19T06:22:16;8.90;50.30
13440;DHT22;6792;57.698;11.946;2023-11-19T06:24:45;8.90;50.30
13440;DHT22;6792;57.698;11.946;2023-11-19T06:27:14;8.90;50.40
13440;DHT22;6792;57.698;11.946;2023-11-19T06:32:26;8.90;49.80
13440;DHT22;6792;57.698;11.946;2023-11-19T06:34:57;8.90;50.30
13440;DHT22;6792;57.698;11.946;2023-11-19T06:37:26;9.00;50.30
13440;DHT22;6792;57.698;11.946;2023-11-19T06:39:55;9.00;50.40
13440;DHT22;6792;57.698;11.946;2023-11-19T06:42:25;9.00;50.40
13440;DHT22;6792;57.698;11.946;2023-11-19T06:44:54;9.00;50.40
13440;DHT22;6792;57.698;11.946;2023-11-19T06:47:27;9.00;50.40
13440;DHT22;6792;57.698;11.946;2023-11-19T06:49:56;9.00;50.40
13440;DHT22;6792;57.698;11.946;2023-11-19T06:52:26;9.00;50.40
13440;DHT22;6792;57.698;11.946;2023-11-19T06:54:55;9.00;50.50
13440;DHT22;6792;57.698;11.946;2023-11-19T06:57:25;9.00;51.10
13440;DHT22;6792;57.698;11.946;2023-11-19T06:59:55;8.90;50.50
13440;DHT22;6792;57.698;11.946;2023-11-19T07:02:24;9.00;50.60
13440;DHT22;6792;57.698;11.946;2023-11-19T07:04:54;8.90;50.60
13440;DHT22;6792;57.698;11.946;2023-11-19T07:07:23;8.90;50.70
13440;DHT22;6792;57.698;11.946;2023-11-19T07:09:52;8.90;50.10
13440;DHT22;6792;57.698;11.946;2023-11-19T07:12:22;9.00;50.80
13440;DHT22;6792;57.698;11.946;2023-11-19T07:14:51;8.90;50.70
13440;DHT22;6792;57.698;11.946;2023-11-19T07:17:20;8.90;50.70
13440;DHT22;6792;57.698;11.946;2023-11-19T07:19:50;8.90;50.80
13440;DHT22;6792;57.698;11.946;2023-11-19T07:22:19;9.00;50.90
13440;DHT22;6792;57.698;11.946;2023-11-19T07:24:48;9.00;50.90
13440;DHT22;6792;57.698;11.946;2023-11-19T07:27:18;9.00;50.90
13440;DHT22;6792;57.698;11.946;2023-11-19T07:29:47;9.00;50.90
13440;DHT22;6792;57.698;11.946;2023-11-19T07:32:16;9.00;50.90
13440;DHT22;6792;57.698;11.946;2023-11-19T07:34:45;9.00;51.00
13440;DHT22;6792;57.698;11.946;2023-11-19T07:37:14;9.00;51.00
13440;DHT22;6792;57.698;11.946;2023-11-19T07:39:44;9.00;51.10
13440;DHT22;6792;57.698;11.946;2023-11-19T07:42:13;9.10;51.10
13440;DHT22;6792;57.698;11.946;2023-11-19T07:44:44;9.10;51.10
13440;DHT22;6792;57.698;11.946;2023-11-19T07:47:13;9.10;51.80
13440;DHT22;6792;57.698;11.946;2023-11-19T07:49:42;9.20;51.10
13440;DHT22;6792;57.698;11.946;2023-11-19T07:52:12;9.20;51.10
13440;DHT22;6792;57.698;11.946;2023-11-19T07:54:41;9.20;51.00
13440;DHT22;6792;57.698;11.946;2023-11-19T07:57:10;9.20;51.10
13440;DHT22;6792;57.698;11.946;2023-11-19T07:59:40;9.20;51.10
13440;DHT22;6792;57.698;11.946;2023-11-19T08:02:09;9.20;51.10
13440;DHT22;6792;57.698;11.946;2023-11-19T08:04:38;9.30;51.20
13440;DHT22;6792;57.698;11.946;2023-11-19T08:07:11;9.30;51.20
13440;DHT22;6792;57.698;11.946;2023-11-19T08:09:41;9.30;51.10
13440;DHT22;6792;57.698;11.946;2023-11-19T08:12:10;9.40;51.10
13440;DHT22;6792;57.698;11.946;2023-11-19T08:14:39;9.30;51.10
13440;DHT22;6792;57.698;11.946;2023-11-19T08:17:08;9.30;51.10
13440;DHT22;6792;57.698;11.946;2023-11-19T08:19:37;9.40;51.20
13440;DHT22;6792;57.698;11.946;2023-11-19T08:22:06;9.40;51.20
13440;DHT22;6792;57.698;11.946;2023-11-19T08:24:38;9.40;51.20
13440;DHT22;6792;57.698;11.946;2023-11-19T08:27:07;9.40;51.20
13440;DHT22;6792;57.698;11.946;2023-11-19T08:29:36;9.40;51.30
13440;DHT22;6792;57.698;11.946;2023-11-19T08:32:07;9.40;51.30
13440;DHT22;6792;57.698;11.946;2023-11-19T08:34:36;9.40;51.40
13440;DHT22;6792;57.698;11.946;2023-11-19T08:37:05;9.40;51.40
13440;DHT22;6792;57.698;11.946;2023-11-19T08:39:34;9.40;51.40
13440;DHT22;6792;57.698;11.946;2023-11-19T08:42:06;9.50;51.50
13440;DHT22;6792;57.698;11.946;2023-11-19T08:44:35;9.50;51.40
13440;DHT22;6792;57.698;11.946;2023-11-19T08:47:05;9.50;51.40
13440;DHT22;6792;57.698;11.946;2023-11-19T08:49:34;9.50;51.30
13440;DHT22;6792;57.698;11.946;2023-11-19T08:52:04;9.40;51.40
13440;DHT22;6792;57.698;11.946;2023-11-19T08:54:34;9.40;51.40
13440;DHT22;6792;57.698;11.946;2023-11-19T08:57:04;9.40;51.50
13440;DHT22;6792;57.698;11.946;2023-11-19T08:59:35;9.40;51.60
13440;DHT22;6792;57.698;11.946;2023-11-19T09:02:06;9.50;52.20
13440;DHT22;6792;57.698;11.946;2023-11-19T09:04:35;9.50;51.60
13440;DHT22;6792;57.698;11.946;2023-11-19T09:07:05;9.50;51.60
13440;DHT22;6792;57.698;11.946;2023-11-19T09:09:34;9.60;51.60
13440;DHT22;6792;57.698;11.946;2023-11-19T09:12:05;9.60;51.60
13440;DHT22;6792;57.698;11.946;2023-11-19T09:14:38;9.60;51.60
13440;DHT22;6792;57.698;11.946;2023-11-19T09:17:07;9.60;51.60
13440;DHT22;6792;57.698;11.946;2023-11-19T09:19:37;9.70;51.60
13440;DHT22;6792;57.698;11.946;2023-11-19T09:22:06;9.70;51.60
13440;DHT22;6792;57.698;11.946;2023-11-19T09:24:35;9.70;51.60
13440;DHT22;6792;57.698;11.946;2023-11-19T09:27:05;9.70;51.70
13440;DHT22;6792;57.698;11.946;2023-11-19T09:29:34;9.70;51.70
13440;DHT22;6792;57.698;11.946;2023-11-19T09:32:05;9.80;51.70
13440;DHT22;6792;57.698;11.946;2023-11-19T09:34:35;9.80;51.70
13440;DHT22;6792;57.698;11.946;2023-11-19T09:37:04;9.90;51.70
13440;DHT22;6792;57.698;11.946;2023-11-19T09:39:33;9.90;51.60
13440;DHT22;6792;57.698;11.946;2023-11-19T09:42:03;9.90;51.60
13440;DHT22;6792;57.698;11.946;2023-11-19T09:44:33;9.90;51.60
13440;DHT22;6792;57.698;11.946;2023-11-19T09:47:02;9.90;51.70
13440;DHT22;6792;57.698;11.946;2023-11-19T09:49:32;9.90;51.70
13440;DHT22;6792;57.698;11.946;2023-11-19T09:52:02;9.90;51.70
13440;DHT22;6792;57.698;11.946;2023-11-19T09:54:33;10.00;51.70
13440;DHT22;6792;57.698;11.946;2023-11-19T09:57:07;10.00;51.70
13440;DHT22;6792;57.698;11.946;2023-11-19T10:00:00;10.00;51.70
13440;DHT22;6792;57.698;11.946;2023-11-19T10:02:38;10.00;51.70
13440;DHT22;6792;57.698;11.946;2023-11-19T10:05:08;10.00;51.70
13440;DHT22;6792;57.698;11.946;2023-11-19T10:07:38;10.10;51.80
13440;DHT22;6792;57.698;11.946;2023-11-19T10:10:09;10.10;51.30
13440;DHT22;6792;57.698;11.946;2023-11-19T10:12:39;10.20;51.90
13440;DHT22;6792;57.698;11.946;2023-11-19T10:17:54;10.40;51.40
13440;DHT22;6792;57.698;11.946;2023-11-19T10:20:23;10.50;51.90
13440;DHT22;6792;57.698;11.946;2023-11-19T10:22:54;10.50;51.90
13440;DHT22;6792;57.698;11.946;2023-11-19T10:25:25;10.60;51.80
13440;DHT22;6792;57.698;11.946;2023-11-19T10:27:55;10.60;51.10
13440;DHT22;6792;57.698;11.946;2023-11-19T10:30:26;10.60;51.70
13440;DHT22;6792;57.698;11.946;2023-11-19T10:33:06;10.60;51.60
13440;DHT22;6792;57.698;11.946;2023-11-19T10:35:37;10.60;51.10
13440;DHT22;6792;57.698;11.946;2023-11-19T10:38:15;10.60;51.70
13440;DHT22;6792;57.698;11.946;2023-11-19T10:40:44;10.60;51.70
13440;DHT22;6792;57.698;11.946;2023-11-19T10:43:13;10.70;51.70
13440;DHT22;6792;57.698;11.946;2023-11-19T10:45:42;10.70;51.60
13440;DHT22;6792;57.698;11.946;2023-11-19T10:48:12;10.70;51.60
13440;DHT22;6792;57.698;11.946;2023-11-19T10:50:42;10.80;51.50
13440;DHT22;6792;57.698;11.946;2023-11-19T10:53:12;10.80;51.50
13440;DHT22;6792;57.698;11.946;2023-11-19T10:55:41;10.80;51.40
13440;DHT22;6792;57.698;11.946;2023-11-19T10:58:13;10.90;51.50
13440;DHT22;6792;57.698;11.946;2023-11-19T11:00:45;10.90;50.90
13440;DHT22;6792;57.698;11.946;2023-11-19T11:03:18;10.80;50.90
13440;DHT22;6792;57.698;11.946;2023-11-19T11:05:51;10.80;51.50
13440;DHT22;6792;57.698;11.946;2023-11-19T11:08:31;10.80;51.60
13440;DHT22;6792;57.698;11.946;2023-11-19T11:11:03;10.90;51.50
13440;DHT22;6792;57.698;11.946;2023-11-19T11:19:08;11.00;50.90
13440;DHT22;6792;57.698;11.946;2023-11-19T11:21:59;11.00;51.30
13440;DHT22;6792;57.698;11.946;2023-11-19T11:25:04;11.10;50.80
13440;DHT22;6792;57.698;11.946;2023-11-19T11:28:00;11.10;51.40
13440;DHT22;6792;57.698;11.946;2023-11-19T11:30:39;11.10;50.80
13440;DHT22;6792;57.698;11.946;2023-11-19T11:33:29;11.10;51.40
13440;DHT22;6792;57.698;11.946;2023-11-19T11:36:11;11.10;50.80
13440;DHT22;6792;57.698;11.946;2023-11-19T11:38:40;11.10;50.80
13440;DHT22;6792;57.698;11.946;2023-11-19T11:41:23;11.10;51.40
13440;DHT22;6792;57.698;11.946;2023-11-19T11:43:55;11.20;52.00
13440;DHT22;6792;57.698;11.946;2023-11-19T11:46:54;11.10;50.80
13440;DHT22;6792;57.698;11.946;2023-11-19T11:49:31;11.20;51.40
13440;DHT22;6792;57.698;11.946;2023-11-19T11:52:10;11.20;51.40
13440;DHT22;6792;57.698;11.946;2023-11-19T11:54:42;11.10;51.30
13440;DHT22;6792;57.698;11.946;2023-11-19T11:57:15;11.20;51.40
13440;DHT22;6792;57.698;11.946;2023-11-19T11:59:49;11.20;51.40
13440;DHT22;6792;57.698;11.946;2023-11-19T12:02:20;11.20;51.40
13440;DHT22;6792;57.698;11.946;2023-11-19T12:04:51;11.20;51.40
13440;DHT22;6792;57.698;11.946;2023-11-19T12:07:22;11.20;51.30
13440;DHT22;6792;57.698;11.946;2023-11-19T12:10:05;11.20;51.30
13440;DHT22;6792;57.698;11.946;2023-11-19T12:12:27;11.20;51.40
13440;DHT22;6792;57.698;11.946;2023-11-19T12:15:06;11.20;51.40
13440;DHT22;6792;57.698;11.946;2023-11-19T12:20:24;11.30;50.80
13440;DHT22;6792;57.698;11.946;2023-11-19T12:22:54;11.30;51.30
13440;DHT22;6792;57.698;11.946;2023-11-19T12:25:24;11.30;51.40
13440;DHT22;6792;57.698;11.946;2023-11-19T12:27:55;11.30;51.30
13440;DHT22;6792;57.698;11.946;2023-11-19T12:30:25;11.40;51.30
13440;DHT22;6792;57.698;11.946;2023-11-19T12:32:54;11.40;51.20
13440;DHT22;6792;57.698;11.946;2023-11-19T12:35:24;11.40;51.20
13440;DHT22;6792;57.698;11.946;2023-11-19T12:37:54;11.40;51.20
13440;DHT22;6792;57.698;11.946;2023-11-19T12:40:24;11.40;51.20
13440;DHT22;6792;57.698;11.946;2023-11-19T12:42:56;11.50;51.20
13440;DHT22;6792;57.698;11.946;2023-11-19T12:45:27;11.50;51.20
13440;DHT22;6792;57.698;11.946;2023-11-19T12:48:07;11.50;51.20
13440;DHT22;6792;57.698;11.946;2023-11-19T12:50:52;11.50;51.10
13440;DHT22;6792;57.698;11.946;2023-11-19T12:53:22;11.50;51.20
13440;DHT22;6792;57.698;11.946;2023-11-19T12:55:52;11.50;51.10
13440;DHT22;6792;57.698;11.946;2023-11-19T12:58:31;11.50;51.00
13440;DHT22;6792;57.698;11.946;2023-11-19T13:01:04;11.60;51.10
13440;DHT22;6792;57.698;11.946;2023-11-19T13:03:56;11.60;51.10
13440;DHT22;6792;57.698;11.946;2023-11-19T13:06:25;11.60;51.00
13440;DHT22;6792;57.698;11.946;2023-11-19T13:08:54;11.60;50.90
13440;DHT22;6792;57.698;11.946;2023-11-19T13:11:33;11.60;50.90
13440;DHT22;6792;57.698;11.946;2023-11-19T13:14:03;11.70;50.90
13440;DHT22;6792;57.698;11.946;2023-11-19T13:16:32;11.60;50.80
13440;DHT22;6792;57.698;11.946;2023-11-19T13:19:02;11.60;50.80
13440;DHT22;6792;57.698;11.946;2023-11-19T13:21:31;11.60;50.80
13440;DHT22;6792;57.698;11.946;2023-11-19T13:24:00;11.60;50.80
13440;DHT22;6792;57.698;11.946;2023-11-19T13:26:29;11.60;50.80
13440;DHT22;6792;57.698;11.946;2023-11-19T13:28:58;11.60;50.80
13440;DHT22;6792;57.698;11.946;2023-11-19T13:31:27;11.60;50.80
13440;DHT22;6792;57.698;11.946;2023-11-19T13:33:56;11.60;50.20
13440;DHT22;6792;57.698;11.946;2023-11-19T13:36:26;11.60;50.20
13440;DHT22;6792;57.698;11.946;2023-11-19T13:38:55;11.60;50.70
13440;DHT22;6792;57.698;11.946;2023-11-19T13:41:26;11.60;50.60
13440;DHT22;6792;57.698;11.946;2023-11-19T13:43:56;11.60;50.10
13440;DHT22;6792;57.698;11.946;2023-11-19T13:46:25;11.60;50.70
13440;DHT22;6792;57.698;11.946;2023-11-19T13:48:54;11.60;50.70
13440;DHT22;6792;57.698;11.946;2023-11-19T13:51:23;11.60;50.60
13440;DHT22;6792;57.698;11.946;2023-11-19T13:53:53;11.60;50.60
13440;DHT22;6792;57.698;11.946;2023-11-19T13:56:22;11.60;50.10
13440;DHT22;6792;57.698;11.946;2023-11-19T13:58:51;11.60;50.60
13440;DHT22;6792;57.698;11.946;2023-11-19T14:01:21;11.60;50.60
13440;DHT22;6792;57.698;11.946;2023-11-19T14:03:50;11.60;50.60
13440;DHT22;6792;57.698;11.946;2023-11-19T14:06:19;11.70;50.60
13440;DHT22;6792;57.698;11.946;2023-11-19T14:08:49;11.70;50.60
13440;DHT22;6792;57.698;11.946;2023-11-19T14:11:18;11.70;50.40
13440;DHT22;6792;57.698;11.946;2023-11-19T14:13:49;11.80;50.50
13440;DHT22;6792;57.698;11.946;2023-11-19T14:16:18;11.80;50.40
13440;DHT22;6792;57.698;11.946;2023-11-19T14:18:47;11.80;50.30
13440;DHT22;6792;57.698;11.946;2023-11-19T14:21:17;11.80;50.30
13440;DHT22;6792;57.698;11.946;2023-11-19T14:23:46;11.80;50.30
13440;DHT22;6792;57.698;11.946;2023-11-19T14:26:15;11.80;50.20
13440;DHT22;6792;57.698;11.946;2023-11-19T14:28:44;11.80;50.20
13440;DHT22;6792;57.698;11.946;2023-11-19T14:31:13;11.80;50.10
13440;DHT22;6792;57.698;11.946;2023-11-19T14:33:43;11.80;50.80
13440;DHT22;6792;57.698;11.946;2023-11-19T14:36:12;11.80;50.10
13440;DHT22;6792;57.698;11.946;2023-11-19T14:38:41;11.70;50.10
13440;DHT22;6792;57.698;11.946;2023-11-19T14:41:10;11.70;50.10
13440;DHT22;6792;57.698;11.946;2023-11-19T14:43:40;11.70;50.10
13440;DHT22;6792;57.698;11.946;2023-11-19T14:46:10;11.70;49.50
13440;DHT22;6792;57.698;11.946;2023-11-19T14:48:39;11.80;50.10
13440;DHT22;6792;57.698;11.946;2023-11-19T14:51:08;11.80;50.00
13440;DHT22;6792;57.698;11.946;2023-11-19T14:53:37;11.80;50.10
13440;DHT22;6792;57.698;11.946;2023-11-19T14:56:10;11.80;49.90
13440;DHT22;6792;57.698;11.946;2023-11-19T14:58:40;11.70;49.80
13440;DHT22;6792;57.698;11.946;2023-11-19T15:01:13;11.70;49.80
13440;DHT22;6792;57.698;11.946;2023-11-19T15:03:43;11.70;49.80
13440;DHT22;6792;57.698;11.946;2023-11-19T15:06:13;11.70;49.30
13440;DHT22;6792;57.698;11.946;2023-11-19T15:08:44;11.70;49.90
13440;DHT22;6792;57.698;11.946;2023-11-19T15:11:13;11.70;49.80
13440;DHT22;6792;57.698;11.946;2023-11-19T15:13:42;11.70;49.80
13440;DHT22;6792;57.698;11.946;2023-11-19T15:16:11;11.60;49.70
13440;DHT22;6792;57.698;11.946;2023-11-19T15:18:42;11.60;49.70
13440;DHT22;6792;57.698;11.946;2023-11-19T15:21:11;11.60;49.70
13440;DHT22;6792;57.698;11.946;2023-11-19T15:23:41;11.60;49.70
13440;DHT22;6792;57.698;11.946;2023-11-19T15:26:10;11.70;49.70
13440;DHT22;6792;57.698;11.946;2023-11-19T15:28:39;11.70;49.70
13440;DHT22;6792;57.698;11.946;2023-11-19T15:31:08;11.70;49.60
13440;DHT22;6792;57.698;11.946;2023-11-19T15:33:38;11.70;49.50
13440;DHT22;6792;57.698;11.946;2023-11-19T15:36:09;11.70;49.50
13440;DHT22;6792;57.698;11.946;2023-11-19T15:38:38;11.70;49.40
13440;DHT22;6792;57.698;11.946;2023-11-19T15:41:07;11.70;49.40
13440;DHT22;6792;57.698;11.946;2023-11-19T15:43:36;11.70;49.30
13440;DHT22;6792;57.698;11.946;2023-11-19T15:46:07;11.70;49.40
13440;DHT22;6792;57.698;11.946;2023-11-19T15:48:37;11.60;48.70
13440;DHT22;6792;57.698;11.946;2023-11-19T15:51:07;11.60;49.30
13440;DHT22;6792;57.698;11.946;2023-11-19T15:53:36;11.60;49.30
13440;DHT22;6792;57.698;11.946;2023-11-19T15:56:06;11.60;49.30
13440;DHT22;6792;57.698;11.946;2023-11-19T15:58:35;11.60;49.30
13440;DHT22;6792;57.698;11.946;2023-11-19T16:01:06;11.60;49.20
13440;DHT22;6792;57.698;11.946;2023-11-19T16:03:36;11.60;49.20
13440;DHT22;6792;57.698;11.946;2023-11-19T16:06:08;11.60;49.20
13440;DHT22;6792;57.698;11.946;2023-11-19T16:08:38;11.60;49.20
13440;DHT22;6792;57.698;11.946;2023-11-19T16:11:09;11.60;49.10
13440;DHT22;6792;57.698;11.946;2023-11-19T16:13:38;11.60;49.10
13440;DHT22;6792;57.698;11.946;2023-11-19T16:16:08;11.60;49.10
13440;DHT22;6792;57.698;11.946;2023-11-19T16:18:37;11.60;48.50
13440;DHT22;6792;57.698;11.946;2023-11-19T16:21:09;11.60;49.00